Time;durP1;ratioP1;P1;durP2;ratioP2;P2;SDS_P1;SDS_P2;PMS_P1;PMS_P2;Temp;Humidity;BMP_temperature;BMP_pressure;BME280_temperature;BME280_humidity;BME280_pressure;Samples;Min_cycle;Max_cycle;Signal;HPM_P1;HPM_P2
2022/05/30 00:02:21;;;;;;;115.78;104.57;;;10.40;95.30;;;;;;5013423;28;20057;-79
2022/05/30 00:04:50;;;;;;;118.22;106.53;;;10.40;95.40;;;;;;4995887;28;20112;-78
2022/05/30 00:07:17;;;;;;;117.18;105.72;;;10.30;95.50;;;;;;4979781;28;20141;-79
2022/05/30 00:09:44;;;;;;;119.25;107.70;;;10.30;95.50;;;;;;4995479;28;20053;-79
2022/05/30 00:12:12;;;;;;;123.22;111.05;;;10.30;95.50;;;;;;4979349;28;20588;-79
2022/05/30 00:14:39;;;;;;;121.45;108.88;;;10.30;95.50;;;;;;4979476;28;20042;-78
2022/05/30 00:17:07;;;;;;;119.93;108.13;;;10.30;95.60;;;;;;4979041;28;20054;-79
2022/05/30 00:19:37;;;;;;;117.43;105.63;;;10.30;95.60;;;;;;4995780;28;20519;-79
2022/05/30 00:22:05;;;;;;;118.03;106.10;;;10.30;95.60;;;;;;4995720;28;20065;-79
2022/05/30 00:24:33;;;;;;;117.45;105.63;;;10.30;95.70;;;;;;4995716;28;20125;-79
2022/05/30 00:27:00;;;;;;;118.43;106.40;;;10.20;95.60;;;;;;4995307;28;20105;-79
2022/05/30 00:29:27;;;;;;;117.30;105.35;;;10.20;95.60;;;;;;4994779;28;20141;-79
2022/05/30 00:31:54;;;;;;;118.40;106.40;;;10.20;95.70;;;;;;4993001;28;20090;-79
2022/05/30 00:34:21;;;;;;;118.15;106.22;;;10.20;95.60;;;;;;4975454;28;20047;-79
2022/05/30 00:36:48;;;;;;;119.00;106.70;;;10.10;95.60;;;;;;4991487;28;20090;-79
2022/05/30 00:39:17;;;;;;;117.70;105.93;;;10.10;95.60;;;;;;4975201;28;20050;-79
2022/05/30 00:41:44;;;;;;;117.18;105.45;;;10.10;95.60;;;;;;4991618;28;20051;-79
2022/05/30 00:44:11;;;;;;;116.28;104.57;;;10.00;95.50;;;;;;4975580;28;20173;-79
2022/05/30 00:46:38;;;;;;;118.78;106.78;;;10.00;95.50;;;;;;4975171;28;20061;-79
2022/05/30 00:49:09;;;;;;;115.95;103.93;;;10.00;95.50;;;;;;4993918;28;20098;-79
2022/05/30 00:51:42;;;;;;;115.75;104.13;;;10.00;95.60;;;;;;4994033;28;20059;-79
2022/05/30 00:54:12;;;;;;;117.00;104.72;;;9.90;95.50;;;;;;4977614;28;20058;-79
2022/05/30 00:56:44;;;;;;;116.75;104.68;;;9.90;95.50;;;;;;4977744;28;20074;-79
2022/05/30 00:59:13;;;;;;;117.05;104.93;;;9.80;95.50;;;;;;4993732;28;20134;-79
2022/05/30 01:01:40;;;;;;;117.32;105.60;;;9.80;95.50;;;;;;4977517;28;20082;-79
2022/05/30 01:06:55;;;;;;;116.97;104.97;;;9.80;95.60;;;;;;4996882;28;20053;-79
2022/05/30 01:09:26;;;;;;;115.45;103.90;;;9.70;95.60;;;;;;5013210;28;20054;-79
2022/05/30 01:11:57;;;;;;;115.72;103.82;;;9.70;95.60;;;;;;4980780;28;20091;-80
2022/05/30 01:14:27;;;;;;;114.72;103.10;;;9.70;95.60;;;;;;4980716;28;20077;-79
2022/05/30 01:16:54;;;;;;;116.07;104.28;;;9.70;95.70;;;;;;4996773;28;20086;-79
2022/05/30 01:19:38;;;;;;;116.43;104.47;;;9.60;95.80;;;;;;4980729;28;20125;-79
2022/05/30 01:22:20;;;;;;;117.10;105.03;;;9.60;95.70;;;;;;4980373;28;20141;-78
2022/05/30 01:24:57;;;;;;;114.35;102.60;;;9.50;95.70;;;;;;5025290;23;20042;-79
2022/05/30 01:28:04;;;;;;;115.35;103.43;;;9.50;95.70;;;;;;5031198;28;20060;-80
2022/05/30 01:30:38;;;;;;;116.45;104.60;;;9.50;95.70;;;;;;5016231;28;20061;-79
2022/05/30 01:33:05;;;;;;;114.70;103.20;;;9.40;95.60;;;;;;5016299;28;20511;-79
2022/05/30 01:35:33;;;;;;;114.82;103.00;;;9.40;95.70;;;;;;5032932;28;20057;-79
2022/05/30 01:38:05;;;;;;;116.57;104.30;;;9.30;95.70;;;;;;4997178;28;20052;-78
2022/05/30 01:40:33;;;;;;;114.10;102.75;;;9.30;95.70;;;;;;4996358;28;20046;-79
2022/05/30 01:43:00;;;;;;;114.55;103.15;;;9.30;95.70;;;;;;4996382;28;20054;-79
2022/05/30 01:45:28;;;;;;;114.85;103.53;;;9.30;95.80;;;;;;5029380;28;20054;-79
2022/05/30 01:47:58;;;;;;;115.05;103.45;;;9.30;95.80;;;;;;4996186;28;20547;-79
2022/05/30 01:50:36;;;;;;;113.30;101.85;;;9.20;95.80;;;;;;5013949;28;20058;-79
2022/05/30 01:53:21;;;;;;;113.75;102.40;;;9.20;95.80;;;;;;4996404;28;20050;-79
2022/05/30 01:56:08;;;;;;;114.05;102.30;;;9.20;95.90;;;;;;5029381;28;20141;-79
2022/05/30 01:58:35;;;;;;;112.47;101.38;;;9.20;95.90;;;;;;5012815;28;20105;-78
2022/05/30 02:01:24;;;;;;;116.25;104.68;;;9.20;95.90;;;;;;5029642;28;20050;-79
2022/05/30 02:03:54;;;;;;;116.47;104.97;;;9.10;95.90;;;;;;4996560;28;20058;-79
2022/05/30 02:06:21;;;;;;;116.55;105.05;;;9.10;95.90;;;;;;4996210;28;20050;-79
2022/05/30 02:08:49;;;;;;;114.93;103.45;;;9.10;95.90;;;;;;5028892;28;20125;-79
2022/05/30 02:11:18;;;;;;;116.55;104.78;;;9.10;95.90;;;;;;5015196;28;20109;-79
2022/05/30 02:13:46;;;;;;;114.00;102.90;;;9.10;95.90;;;;;;5015390;28;20094;-79
2022/05/30 02:19:25;;;;;;;112.68;101.57;;;9.00;95.80;;;;;;5015878;28;20050;-79
2022/05/30 02:21:52;;;;;;;113.95;102.47;;;9.00;95.90;;;;;;5032058;28;20054;-79
2022/05/30 02:24:19;;;;;;;113.70;102.38;;;9.00;95.90;;;;;;5015315;28;20141;-79
2022/05/30 02:26:47;;;;;;;118.38;106.80;;;9.00;95.90;;;;;;5031976;28;20551;-79
2022/05/30 02:29:18;;;;;;;116.18;104.60;;;9.00;96.00;;;;;;5015538;28;20137;-79
2022/05/30 02:31:53;;;;;;;114.57;103.15;;;9.00;96.10;;;;;;5015385;28;20047;-79
2022/05/30 02:37:09;;;;;;;116.13;104.55;;;9.00;96.20;;;;;;5015214;28;20054;-79
2022/05/30 02:39:37;;;;;;;114.85;103.30;;;9.00;96.20;;;;;;5015560;28;20140;-79
2022/05/30 02:42:23;;;;;;;114.70;103.28;;;9.00;96.20;;;;;;5031265;28;20216;-79
2022/05/30 02:44:51;;;;;;;117.78;106.30;;;9.00;96.10;;;;;;5031773;28;20050;-79
2022/05/30 02:47:18;;;;;;;114.38;103.15;;;9.00;96.10;;;;;;5031542;28;20057;-78
2022/05/30 02:49:51;;;;;;;114.72;103.40;;;9.00;96.10;;;;;;5031954;28;20062;-79
2022/05/30 02:52:21;;;;;;;113.38;102.15;;;9.00;96.10;;;;;;5033410;28;20526;-79
2022/05/30 02:54:49;;;;;;;113.22;102.13;;;9.00;96.10;;;;;;5034989;28;20054;-78
2022/05/30 02:57:26;;;;;;;117.93;106.03;;;9.00;96.00;;;;;;5035106;28;20046;-79
2022/05/30 03:00:44;;;;;;;112.40;101.55;;;9.00;96.00;;;;;;5035502;28;20492;-78
2022/05/30 03:03:11;;;;;;;114.20;102.88;;;9.00;96.00;;;;;;5051155;28;20050;-79
2022/05/30 03:05:38;;;;;;;114.85;102.97;;;8.90;95.90;;;;;;5034389;28;20483;-79
2022/05/30 03:08:09;;;;;;;116.50;104.88;;;8.90;95.90;;;;;;5017910;28;20136;-79
2022/05/30 03:11:03;;;;;;;113.55;102.25;;;8.90;95.90;;;;;;5003869;28;20117;-79
2022/05/30 03:13:30;;;;;;;113.30;101.47;;;8.80;95.80;;;;;;5018045;28;20046;-78
2022/05/30 03:15:58;;;;;;;115.55;103.90;;;8.80;95.80;;;;;;5033894;28;20049;-78
2022/05/30 03:18:50;;;;;;;112.93;101.75;;;8.80;95.80;;;;;;5017947;28;20049;-79
2022/05/30 03:21:17;;;;;;;114.13;102.88;;;8.70;95.80;;;;;;5018375;28;20042;-79
2022/05/30 03:23:46;;;;;;;112.80;101.78;;;8.70;95.80;;;;;;5018075;28;20547;-79
2022/05/30 03:26:20;;;;;;;112.65;101.57;;;8.70;95.90;;;;;;5018086;28;20082;-79
2022/05/30 03:28:47;;;;;;;113.30;102.10;;;8.60;95.90;;;;;;5018209;28;20064;-78
2022/05/30 03:31:15;;;;;;;115.13;103.72;;;8.60;95.90;;;;;;5034385;28;20054;-79
2022/05/30 03:33:43;;;;;;;115.72;104.57;;;8.60;95.90;;;;;;5017929;28;20523;-79
2022/05/30 03:36:16;;;;;;;113.97;102.68;;;8.50;95.90;;;;;;5018086;28;20072;-79
2022/05/30 03:39:02;;;;;;;117.97;106.68;;;8.50;95.90;;;;;;5034048;28;20507;-79
2022/05/30 03:41:48;;;;;;;114.30;103.00;;;8.50;95.90;;;;;;5035866;28;20057;-79
2022/05/30 03:44:21;;;;;;;114.30;102.82;;;8.60;95.90;;;;;;5017721;28;20467;-79
2022/05/30 03:46:47;;;;;;;113.35;102.07;;;8.50;95.90;;;;;;5018016;28;20073;-79
2022/05/30 03:49:14;;;;;;;114.22;102.68;;;8.50;95.90;;;;;;5017121;28;20041;-79
2022/05/30 03:51:41;;;;;;;116.05;104.65;;;8.50;95.90;;;;;;5017761;28;20046;-78
2022/05/30 03:54:11;;;;;;;113.63;102.50;;;8.50;95.90;;;;;;5033992;28;20046;-79
2022/05/30 03:56:38;;;;;;;113.28;101.80;;;8.50;96.00;;;;;;5034009;28;20042;-79
2022/05/30 03:59:07;;;;;;;113.38;102.07;;;8.40;95.90;;;;;;5017809;28;20131;-80
2022/05/30 04:01:34;;;;;;;113.35;101.97;;;8.40;95.90;;;;;;5017571;28;20464;-78
2022/05/30 04:04:01;;;;;;;114.32;102.75;;;8.40;95.90;;;;;;5033984;28;20046;-78
2022/05/30 04:06:28;;;;;;;112.22;101.32;;;8.40;96.00;;;;;;5034430;28;20085;-79
2022/05/30 04:08:57;;;;;;;116.63;105.00;;;8.40;96.00;;;;;;5034089;28;20049;-78
2022/05/30 04:11:48;;;;;;;113.75;102.32;;;8.40;96.00;;;;;;5034002;28;20137;-79
2022/05/30 04:14:54;;;;;;;114.00;102.63;;;8.40;96.00;;;;;;4956530;28;20532;-79
2022/05/30 04:17:25;;;;;;;115.22;103.70;;;8.30;96.00;;;;;;5004757;28;20469;-79
2022/05/30 04:19:53;;;;;;;114.50;103.00;;;8.40;96.00;;;;;;5017696;28;20050;-79
2022/05/30 04:22:23;;;;;;;116.18;104.68;;;8.30;96.10;;;;;;5032596;28;20064;-78
2022/05/30 04:25:15;;;;;;;114.15;102.72;;;8.30;96.10;;;;;;5032859;28;20045;-79
2022/05/30 04:27:44;;;;;;;116.68;105.28;;;8.30;96.20;;;;;;5033909;28;20049;-79
2022/05/30 04:30:12;;;;;;;117.13;105.55;;;8.30;96.20;;;;;;5017285;28;20042;-79
2022/05/30 04:32:49;;;;;;;113.45;101.95;;;8.30;96.30;;;;;;5034185;28;20046;-78
2022/05/30 04:35:18;;;;;;;114.68;103.07;;;8.30;96.30;;;;;;5033406;28;20120;-78
2022/05/30 04:37:47;;;;;;;114.47;102.82;;;8.30;96.40;;;;;;5034696;28;20057;-78
2022/05/30 04:40:40;;;;;;;114.78;102.93;;;8.30;96.40;;;;;;5029588;28;20061;-78
2022/05/30 04:47:36;;;;;;;115.20;103.45;;;8.30;96.70;;;;;;5033248;28;20049;-79
2022/05/30 04:50:04;;;;;;;114.93;103.15;;;8.40;96.80;;;;;;5033590;28;20049;-79
2022/05/30 04:52:32;;;;;;;114.32;102.82;;;8.40;96.90;;;;;;5016841;28;20038;-78
2022/05/30 04:55:12;;;;;;;117.00;104.93;;;8.40;96.90;;;;;;5016094;28;20058;-78
2022/05/30 04:57:45;;;;;;;115.35;103.50;;;8.40;97.00;;;;;;5033041;28;20074;-79
2022/05/30 05:00:31;;;;;;;113.45;101.95;;;8.50;97.10;;;;;;5033636;28;20108;-79
2022/05/30 05:03:00;;;;;;;114.03;102.40;;;8.50;97.20;;;;;;5033170;28;20077;-78
2022/05/30 05:05:27;;;;;;;113.63;102.03;;;8.50;97.20;;;;;;5033604;28;20081;-78
2022/05/30 05:11:37;;;;;;;113.88;102.30;;;8.60;97.30;;;;;;5033250;28;20054;-78
2022/05/30 05:14:22;;;;;;;115.40;103.55;;;8.60;97.30;;;;;;5032246;28;20054;-78
2022/05/30 05:17:09;;;;;;;114.80;103.05;;;8.60;97.30;;;;;;5033138;28;20053;-78
2022/05/30 05:19:39;;;;;;;114.95;103.15;;;8.70;97.40;;;;;;5016474;28;20126;-79
2022/05/30 05:22:07;;;;;;;114.57;103.03;;;8.70;97.40;;;;;;5033275;28;20516;-78
2022/05/30 05:24:34;;;;;;;114.70;102.95;;;8.70;97.40;;;;;;5016199;28;20038;-78
2022/05/30 05:27:30;;;;;;;114.00;102.40;;;8.70;97.60;;;;;;5032714;28;20054;-78
2022/05/30 05:34:17;;;;;;;115.47;103.63;;;8.80;97.50;;;;;;5034167;28;20053;-78
2022/05/30 05:36:47;;;;;;;114.40;102.80;;;8.80;97.50;;;;;;5033161;28;20142;-77
2022/05/30 05:39:15;;;;;;;113.97;102.32;;;8.90;97.80;;;;;;5016107;28;20508;-78
2022/05/30 05:41:48;;;;;;;127.30;115.30;;;8.90;97.90;;;;;;5015921;28;20145;-78
2022/05/30 05:44:17;;;;;;;123.13;111.18;;;9.00;97.90;;;;;;5047650;28;20057;-79
2022/05/30 05:46:44;;;;;;;120.97;109.20;;;9.00;98.00;;;;;;5032215;28;20565;-78
2022/05/30 05:49:11;;;;;;;116.35;104.60;;;9.10;98.00;;;;;;5033350;28;20478;-78
2022/05/30 05:51:40;;;;;;;115.07;103.40;;;9.10;98.00;;;;;;5015459;28;20050;-78
2022/05/30 05:54:12;;;;;;;114.13;102.55;;;9.20;98.10;;;;;;5031581;28;20054;-78
2022/05/30 05:56:40;;;;;;;114.10;102.43;;;9.30;98.10;;;;;;4958037;28;20140;-79
2022/05/30 05:59:17;;;;;;;115.82;104.07;;;9.30;98.10;;;;;;5016216;28;20145;-79
2022/05/30 06:01:44;;;;;;;115.57;103.97;;;9.40;98.00;;;;;;5032077;28;20057;-79
2022/05/30 06:04:12;;;;;;;113.80;102.40;;;9.40;97.90;;;;;;5014850;28;20053;-78
2022/05/30 06:07:00;;;;;;;113.93;102.50;;;9.50;98.00;;;;;;5032249;28;20060;-78
2022/05/30 06:09:33;;;;;;;113.53;101.90;;;9.60;98.10;;;;;;5015597;28;20048;-78
2022/05/30 06:12:11;;;;;;;115.20;103.45;;;9.60;98.00;;;;;;5015649;28;20104;-78
2022/05/30 06:14:40;;;;;;;113.63;101.93;;;9.70;98.00;;;;;;5032323;28;20061;-78
2022/05/30 06:17:07;;;;;;;116.97;105.47;;;9.70;97.90;;;;;;5029047;28;20109;-78
2022/05/30 06:19:34;;;;;;;114.32;102.82;;;9.70;98.00;;;;;;5012545;28;20046;-80
2022/05/30 06:22:01;;;;;;;116.25;104.45;;;9.80;97.90;;;;;;5012477;28;20153;-80
2022/05/30 06:24:33;;;;;;;115.70;104.28;;;9.80;97.70;;;;;;5019618;28;20046;-79
2022/05/30 06:27:20;;;;;;;117.93;106.15;;;9.90;97.70;;;;;;5042664;28;20185;-79
2022/05/30 06:30:07;;;;;;;115.07;103.35;;;9.90;97.70;;;;;;5027406;28;20054;-78
2022/05/30 06:32:36;;;;;;;114.30;102.90;;;9.90;97.50;;;;;;5031193;28;20081;-79
2022/05/30 06:35:07;;;;;;;114.28;103.03;;;10.00;97.60;;;;;;5031252;28;20050;-79
2022/05/30 06:37:37;;;;;;;114.50;102.97;;;10.00;97.60;;;;;;5030721;28;20104;-79
2022/05/30 06:40:06;;;;;;;115.57;104.35;;;10.00;97.60;;;;;;5012596;28;20558;-79
2022/05/30 06:42:40;;;;;;;113.50;102.60;;;10.10;97.60;;;;;;5031108;28;20552;-79
2022/05/30 06:45:39;;;;;;;112.88;102.03;;;10.10;97.40;;;;;;5031814;28;20207;-79
2022/05/30 06:48:25;;;;;;;112.90;101.90;;;10.20;97.10;;;;;;5031453;28;20046;-79
2022/05/30 06:50:52;;;;;;;113.65;102.85;;;10.30;97.00;;;;;;5031771;28;20128;-80
2022/05/30 06:53:20;;;;;;;113.57;102.75;;;10.30;96.90;;;;;;5031484;28;20065;-79
2022/05/30 06:55:51;;;;;;;113.63;102.60;;;10.30;96.60;;;;;;5030760;28;20061;-79
2022/05/30 06:58:19;;;;;;;116.07;104.88;;;10.40;96.40;;;;;;5014332;28;20080;-79
2022/05/30 07:00:48;;;;;;;114.65;103.45;;;10.40;96.50;;;;;;5014889;28;20104;-79
2022/05/30 07:03:50;;;;;;;118.65;107.45;;;10.40;96.20;;;;;;5029781;28;20536;-78
2022/05/30 07:06:36;;;;;;;116.75;105.43;;;10.50;96.30;;;;;;5029672;28;20042;-77
2022/05/30 07:09:20;;;;;;;115.30;104.32;;;10.50;96.30;;;;;;5030169;28;20050;-78
2022/05/30 07:12:00;;;;;;;113.70;102.60;;;10.50;96.40;;;;;;5030061;28;20101;-78
2022/05/30 07:14:28;;;;;;;112.25;101.22;;;10.60;96.40;;;;;;5014516;28;20046;-78
2022/05/30 07:16:55;;;;;;;113.25;102.05;;;10.60;96.40;;;;;;5014107;28;20054;-78
2022/05/30 07:19:23;;;;;;;114.00;103.03;;;10.70;96.40;;;;;;5031186;28;20050;-79
2022/05/30 07:21:53;;;;;;;114.10;103.00;;;10.70;96.20;;;;;;5010338;28;20058;-82
2022/05/30 07:24:50;;;;;;;113.63;102.55;;;10.80;96.20;;;;;;4975860;28;20123;-80
2022/05/30 07:27:47;;;;;;;113.75;102.85;;;10.80;96.40;;;;;;5021050;28;20628;-79
2022/05/30 07:30:35;;;;;;;113.47;102.38;;;10.90;96.60;;;;;;5030109;28;20061;-79
2022/05/30 07:33:21;;;;;;;115.32;104.20;;;10.90;96.30;;;;;;5030469;28;20057;-79
2022/05/30 07:36:10;;;;;;;115.30;104.25;;;11.00;96.20;;;;;;5028803;28;20054;-79
2022/05/30 07:39:07;;;;;;;114.18;103.18;;;11.00;96.20;;;;;;4967790;28;20050;-79
2022/05/30 07:41:53;;;;;;;115.40;104.10;;;11.10;96.00;;;;;;5015227;28;20061;-79
2022/05/30 07:44:37;;;;;;;114.47;103.38;;;11.10;95.90;;;;;;5030269;28;20049;-77
2022/05/30 07:47:27;;;;;;;115.57;104.35;;;11.20;95.80;;;;;;4995646;28;20057;-78
2022/05/30 07:50:15;;;;;;;113.07;102.22;;;11.20;95.80;;;;;;5002413;28;20062;-78
2022/05/30 07:53:30;;;;;;;113.32;102.25;;;11.30;95.70;;;;;;5034702;28;20049;-79
2022/05/30 07:56:15;;;;;;;113.90;102.53;;;11.40;95.60;;;;;;5031121;28;20057;-79
2022/05/30 07:58:42;;;;;;;113.05;102.15;;;11.40;95.30;;;;;;5033630;28;20213;-79
2022/05/30 08:01:16;;;;;;;113.88;102.95;;;11.50;95.20;;;;;;5033116;28;20065;-79
2022/05/30 08:03:45;;;;;;;113.55;102.65;;;11.50;95.10;;;;;;5033893;28;20050;-79
2022/05/30 08:06:38;;;;;;;113.30;102.50;;;11.60;94.90;;;;;;5031367;28;20046;-79
2022/05/30 08:09:23;;;;;;;114.43;103.32;;;11.60;94.70;;;;;;5048636;28;20046;-79
2022/05/30 08:12:14;;;;;;;112.28;101.57;;;11.60;94.70;;;;;;5018028;28;20057;-78
2022/05/30 08:14:57;;;;;;;114.38;103.38;;;11.70;94.20;;;;;;5031807;28;20559;-78
2022/05/30 08:17:48;;;;;;;113.75;102.95;;;11.70;94.10;;;;;;5030934;28;20049;-78
2022/05/30 08:20:16;;;;;;;114.60;103.72;;;11.80;94.10;;;;;;5049881;28;20038;-79
2022/05/30 08:22:44;;;;;;;111.72;101.13;;;11.80;94.30;;;;;;5016766;28;20050;-78
2022/05/30 08:25:14;;;;;;;113.15;102.55;;;11.80;94.30;;;;;;5044334;28;20559;-81
2022/05/30 08:27:42;;;;;;;112.28;101.63;;;11.90;94.20;;;;;;5033022;28;20825;-80
2022/05/30 08:30:11;;;;;;;114.35;103.63;;;11.90;94.10;;;;;;5049184;28;20170;-79
2022/05/30 08:32:44;;;;;;;112.28;101.78;;;11.90;93.90;;;;;;5052257;28;20641;-81
2022/05/30 08:35:36;;;;;;;115.90;104.97;;;11.90;94.10;;;;;;5003590;28;20065;-79
2022/05/30 08:38:04;;;;;;;113.20;102.68;;;12.00;94.30;;;;;;5031719;28;20057;-79
2022/05/30 08:43:28;;;;;;;127.05;115.57;;;11.90;94.30;;;;;;5032137;22;20046;-79
2022/05/30 08:46:09;;;;;;;116.68;105.63;;;11.90;94.50;;;;;;4993300;28;20145;-80
2022/05/30 08:48:45;;;;;;;115.45;104.70;;;11.90;94.60;;;;;;5009778;28;20513;-80
2022/05/30 08:51:35;;;;;;;115.50;104.70;;;11.90;94.70;;;;;;5020041;28;20065;-80
2022/05/30 08:54:30;;;;;;;114.57;103.88;;;11.80;94.90;;;;;;5009941;28;20051;-80
2022/05/30 08:57:26;;;;;;;113.20;102.53;;;11.80;94.90;;;;;;5009630;28;20043;-81
2022/05/30 09:00:09;;;;;;;116.50;105.53;;;11.80;94.90;;;;;;4993376;28;20052;-80
2022/05/30 09:02:57;;;;;;;115.65;104.68;;;11.80;94.90;;;;;;5002866;28;20046;-81
2022/05/30 09:05:29;;;;;;;115.53;104.72;;;11.80;95.00;;;;;;5011332;28;20046;-78
2022/05/30 09:08:03;;;;;;;114.47;103.78;;;11.80;95.10;;;;;;5011911;28;20050;-79
2022/05/30 09:10:38;;;;;;;114.43;103.75;;;11.80;94.90;;;;;;5010724;28;20051;-78
2022/05/30 09:13:17;;;;;;;113.88;103.28;;;11.80;94.70;;;;;;5012612;28;20046;-80
2022/05/30 09:16:12;;;;;;;113.55;102.85;;;11.80;94.70;;;;;;4997555;28;20512;-83
2022/05/30 09:18:45;;;;;;;113.47;102.78;;;11.80;94.80;;;;;;4993620;28;20057;-83
2022/05/30 09:21:13;;;;;;;114.57;103.68;;;11.80;95.00;;;;;;4995199;28;20464;-83
2022/05/30 09:23:42;;;;;;;113.50;102.90;;;11.80;94.70;;;;;;5011879;28;20508;-83
2022/05/30 09:26:17;;;;;;;116.30;105.50;;;11.80;94.60;;;;;;5023326;28;20066;-80
2022/05/30 09:29:02;;;;;;;121.50;110.40;;;11.90;94.70;;;;;;5010716;28;20102;-80
2022/05/30 09:31:58;;;;;;;114.07;103.35;;;11.90;95.00;;;;;;5006216;28;20532;-80
2022/05/30 09:34:46;;;;;;;114.28;103.57;;;11.90;95.20;;;;;;4992328;28;20058;-80
2022/05/30 09:37:33;;;;;;;112.93;102.43;;;12.00;95.30;;;;;;4992217;28;20057;-80
2022/05/30 09:40:21;;;;;;;115.53;104.68;;;12.00;95.40;;;;;;5007200;28;20440;-77
2022/05/30 09:43:24;;;;;;;115.03;104.35;;;12.10;95.70;;;;;;5010347;28;20054;-84
2022/05/30 09:45:52;;;;;;;113.05;102.55;;;12.20;95.10;;;;;;5011005;28;20539;-83
2022/05/30 09:49:04;;;;;;;112.93;102.43;;;12.20;93.60;;;;;;5008786;28;20491;-83
2022/05/30 09:51:32;;;;;;;113.60;103.00;;;12.30;94.10;;;;;;5011405;28;20121;-82
2022/05/30 09:54:09;;;;;;;113.53;102.95;;;12.30;93.30;;;;;;4994728;28;20054;-83
2022/05/30 09:56:43;;;;;;;114.15;103.45;;;12.40;93.30;;;;;;5010739;28;20052;-84
2022/05/30 09:59:31;;;;;;;115.78;104.95;;;12.40;92.60;;;;;;4993776;28;20054;-84
2022/05/30 10:02:22;;;;;;;114.15;103.55;;;12.50;92.90;;;;;;5009804;28;20062;-82
2022/05/30 10:04:56;;;;;;;115.95;105.25;;;12.60;92.40;;;;;;4991245;28;20109;-82
2022/05/30 10:07:24;;;;;;;114.57;103.97;;;12.60;92.60;;;;;;5010331;28;20513;-81
2022/05/30 10:09:57;;;;;;;113.63;103.13;;;12.60;92.90;;;;;;5009803;28;20046;-80
2022/05/30 10:12:37;;;;;;;116.15;105.38;;;12.80;92.30;;;;;;4989930;28;20054;-83
2022/05/30 10:15:25;;;;;;;115.95;105.18;;;12.80;92.00;;;;;;4987645;28;20145;-82
2022/05/30 10:18:16;;;;;;;114.18;103.53;;;12.90;92.60;;;;;;5008035;28;20058;-79
2022/05/30 10:20:45;;;;;;;;;;;13.00;92.70;;;;;;5018057;28;20494;-78
2022/05/30 10:31:11;;;;;;;117.05;106.10;;;13.30;92.10;;;;;;5009089;28;20153;-79
2022/05/30 10:34:30;;;;;;;113.90;103.30;;;13.40;91.60;;;;;;4995397;28;20058;-80
2022/05/30 10:37:06;;;;;;;115.47;104.78;;;13.50;92.00;;;;;;4991624;28;20058;-80
2022/05/30 10:39:53;;;;;;;117.80;106.95;;;13.60;91.50;;;;;;4994012;28;20561;-79
2022/05/30 10:42:24;;;;;;;115.22;104.60;;;13.60;90.10;;;;;;5009468;28;20053;-80
2022/05/30 10:44:58;;;;;;;115.35;104.63;;;13.50;89.60;;;;;;5002136;28;20078;-80
2022/05/30 10:47:38;;;;;;;115.55;104.95;;;13.50;90.20;;;;;;4994296;28;20157;-78
2022/05/30 10:50:13;;;;;;;116.18;105.50;;;13.50;90.40;;;;;;5009028;28;20042;-79
2022/05/30 10:52:45;;;;;;;118.40;107.40;;;13.50;88.30;;;;;;5010521;28;20424;-79
2022/05/30 10:55:19;;;;;;;117.38;106.47;;;13.50;87.10;;;;;;4994551;28;21015;-77
2022/05/30 10:57:51;;;;;;;116.38;105.57;;;13.50;85.30;;;;;;5027482;28;20050;-77
2022/05/30 11:00:22;;;;;;;117.57;106.68;;;13.40;87.30;;;;;;5010210;28;20527;-78
2022/05/30 11:02:59;;;;;;;115.05;104.35;;;13.40;86.90;;;;;;5024088;28;20491;-78
2022/05/30 11:05:31;;;;;;;116.75;106.00;;;13.40;87.90;;;;;;5007362;28;20055;-79
2022/05/30 11:08:06;;;;;;;115.85;104.97;;;13.40;87.70;;;;;;5000579;28;20054;-80
2022/05/30 11:10:46;;;;;;;117.07;105.97;;;13.40;88.60;;;;;;5008742;28;20543;-82
2022/05/30 11:13:21;;;;;;;116.93;105.90;;;13.50;87.30;;;;;;5010210;28;20043;-80
2022/05/30 11:16:19;;;;;;;116.63;105.93;;;13.50;87.10;;;;;;5012912;28;20184;-80
2022/05/30 11:19:12;;;;;;;116.32;105.43;;;13.60;87.30;;;;;;5012556;28;20647;-82
2022/05/30 11:22:08;;;;;;;116.80;106.00;;;13.60;85.90;;;;;;5005023;28;20089;-81
2022/05/30 11:24:37;;;;;;;117.90;107.03;;;13.60;87.60;;;;;;5008063;28;20073;-80
2022/05/30 11:27:33;;;;;;;118.57;107.47;;;13.70;87.40;;;;;;5027854;28;20065;-81
2022/05/30 11:30:36;;;;;;;118.53;107.57;;;13.80;88.80;;;;;;5012230;28;20133;-81
2022/05/30 11:33:42;;;;;;;117.00;106.22;;;13.80;89.60;;;;;;5012731;28;20050;-81
2022/05/30 11:36:23;;;;;;;116.45;105.65;;;13.80;89.50;;;;;;4989655;28;20468;-80
2022/05/30 11:39:13;;;;;;;115.28;104.57;;;13.70;88.60;;;;;;5010678;28;20050;-80
2022/05/30 11:41:47;;;;;;;118.03;107.22;;;13.60;88.60;;;;;;5013395;28;20053;-80
2022/05/30 11:44:46;;;;;;;115.93;105.22;;;13.60;88.60;;;;;;5012973;28;20051;-79
2022/05/30 11:47:31;;;;;;;117.97;107.25;;;13.60;88.70;;;;;;5016045;28;20525;-79
2022/05/30 11:50:21;;;;;;;116.72;106.13;;;13.60;88.60;;;;;;5011889;28;20053;-79
2022/05/30 11:53:22;;;;;;;115.38;104.78;;;13.50;89.60;;;;;;5029260;28;20054;-80
2022/05/30 11:55:55;;;;;;;115.75;105.03;;;13.50;89.90;;;;;;5011717;28;20522;-79
2022/05/30 11:58:37;;;;;;;116.60;105.82;;;13.40;89.90;;;;;;5012303;28;20077;-79
2022/05/30 12:01:05;;;;;;;123.05;111.85;;;13.40;90.20;;;;;;5009911;28;20145;-79
2022/05/30 12:04:04;;;;;;;114.57;104.07;;;13.40;90.50;;;;;;5010317;28;20060;-79
2022/05/30 12:07:09;;;;;;;116.50;105.85;;;13.30;90.90;;;;;;4994316;28;20134;-79
2022/05/30 12:09:57;;;;;;;116.13;105.32;;;13.30;91.10;;;;;;4917958;29;20121;-79
2022/05/30 12:12:54;;;;;;;114.82;104.13;;;13.20;91.40;;;;;;4999821;28;20594;-79
2022/05/30 12:15:57;;;;;;;114.72;103.93;;;13.20;91.50;;;;;;5013358;28;20371;-79
2022/05/30 12:24:55;;;;;;;117.25;106.45;;;13.00;92.30;;;;;;4956118;28;20063;-79
2022/05/30 12:27:37;;;;;;;116.97;106.18;;;13.00;92.60;;;;;;4987441;28;20531;-79
2022/05/30 12:30:07;;;;;;;114.95;104.25;;;13.10;93.10;;;;;;5029587;28;20073;-79
2022/05/30 12:32:40;;;;;;;114.57;104.05;;;13.10;93.30;;;;;;5012523;28;20050;-79
2022/05/30 12:35:21;;;;;;;115.97;105.20;;;13.10;93.50;;;;;;5013003;28;20499;-79
2022/05/30 12:37:51;;;;;;;116.05;105.15;;;13.20;93.50;;;;;;5010872;28;20058;-79
2022/05/30 12:40:35;;;;;;;116.15;105.45;;;13.20;93.60;;;;;;5014406;28;20065;-79
2022/05/30 12:43:14;;;;;;;116.57;105.72;;;13.30;93.90;;;;;;5012467;28;20149;-79
2022/05/30 12:45:44;;;;;;;114.78;104.13;;;13.30;94.00;;;;;;4996809;28;20046;-80
2022/05/30 12:48:21;;;;;;;117.90;106.93;;;13.30;94.00;;;;;;5012494;28;20472;-79
2022/05/30 12:51:14;;;;;;;116.55;105.85;;;13.40;93.90;;;;;;5011745;28;20113;-79
2022/05/30 12:54:21;;;;;;;116.07;105.45;;;13.40;93.90;;;;;;4983582;28;20599;-79
2022/05/30 12:57:10;;;;;;;117.35;106.43;;;13.50;94.20;;;;;;4987392;28;20054;-79
2022/05/30 13:00:03;;;;;;;117.35;106.55;;;13.60;94.30;;;;;;5012866;28;20157;-79
2022/05/30 13:02:56;;;;;;;115.95;105.05;;;13.60;94.20;;;;;;5029438;28;20516;-79
2022/05/30 13:05:27;;;;;;;116.78;106.00;;;13.80;94.20;;;;;;5013800;28;20579;-80
2022/05/30 13:07:54;;;;;;;117.25;106.55;;;13.80;94.30;;;;;;5012697;28;20160;-80
2022/05/30 13:10:21;;;;;;;117.95;107.07;;;13.90;94.20;;;;;;5012331;28;20053;-79
2022/05/30 13:12:58;;;;;;;117.00;106.20;;;14.00;94.40;;;;;;5011411;28;20054;-79
2022/05/30 13:15:31;;;;;;;118.82;107.82;;;14.00;93.40;;;;;;5012533;28;20532;-79
2022/05/30 13:18:03;;;;;;;117.60;106.47;;;14.10;92.00;;;;;;5010877;28;20129;-79
2022/05/30 13:20:36;;;;;;;116.47;105.57;;;14.10;91.60;;;;;;5013785;28;20141;-79
2022/05/30 13:23:04;;;;;;;119.28;108.38;;;14.20;91.50;;;;;;5011271;28;20058;-79
2022/05/30 13:25:33;;;;;;;117.25;106.30;;;14.20;91.00;;;;;;5011673;28;20060;-79
2022/05/30 13:28:08;;;;;;;116.75;105.97;;;14.20;91.00;;;;;;5011052;28;20694;-79
2022/05/30 13:30:36;;;;;;;116.70;105.50;;;14.20;91.00;;;;;;5028312;28;20125;-80
2022/05/30 13:33:11;;;;;;;116.60;105.88;;;14.30;90.50;;;;;;5013317;28;20254;-79
2022/05/30 13:35:40;;;;;;;116.07;105.28;;;14.30;90.30;;;;;;4992782;28;20087;-81
2022/05/30 13:38:11;;;;;;;118.82;107.93;;;14.40;90.20;;;;;;5027297;28;20065;-82
2022/05/30 13:40:39;;;;;;;117.57;106.78;;;14.40;89.10;;;;;;5010924;28;20046;-82